createdAt,value
2023-03-28T00:02:27.225Z,9.10
2023-03-28T00:05:15.013Z,8.80
2023-03-28T00:08:03.278Z,8.70
2023-03-28T00:10:51.249Z,9.00
2023-03-28T00:13:39.171Z,8.70
2023-03-28T00:16:39.464Z,8.50
2023-03-28T00:19:27.135Z,8.70
2023-03-28T00:22:14.583Z,8.90
2023-03-28T00:25:03.097Z,8.60
2023-03-28T00:27:50.628Z,8.80
2023-03-28T00:30:38.101Z,8.80
2023-03-28T00:33:26.031Z,8.60
2023-03-28T00:36:22.809Z,8.80
2023-03-28T00:39:11.148Z,8.50
2023-03-28T00:42:01.765Z,8.60
2023-03-28T00:44:53.625Z,8.60
2023-03-28T00:48:02.202Z,8.60
2023-03-28T00:50:51.587Z,8.50
2023-03-28T00:53:39.075Z,8.40
2023-03-28T00:56:32.039Z,8.50
2023-03-28T00:59:25.060Z,8.30
2023-03-28T01:02:12.672Z,8.30
2023-03-28T01:05:04.031Z,8.60
2023-03-28T01:07:59.012Z,8.50
2023-03-28T01:10:48.164Z,8.60
2023-03-28T01:13:44.181Z,8.70
2023-03-28T01:16:33.107Z,8.70
2023-03-28T01:19:59.119Z,8.70
2023-03-28T01:23:13.922Z,8.70
2023-03-28T01:26:42.348Z,8.50
2023-03-28T01:30:14.522Z,8.60
2023-03-28T01:33:30.592Z,8.60
2023-03-28T01:37:01.624Z,8.60
2023-03-28T01:40:41.405Z,8.40
2023-03-28T01:44:02.069Z,8.60
2023-03-28T01:47:24.143Z,8.40
2023-03-28T01:50:32.530Z,8.60
2023-03-28T01:53:40.646Z,8.50
2023-03-28T01:56:51.719Z,8.60
2023-03-28T02:00:06.567Z,8.50
2023-03-28T02:03:29.365Z,8.50
2023-03-28T02:06:21.234Z,8.40
2023-03-28T02:09:11.451Z,8.60
2023-03-28T02:12:15.425Z,8.60
2023-03-28T02:15:06.636Z,8.60
2023-03-28T02:18:02.624Z,8.60
2023-03-28T02:20:59.133Z,8.70
2023-03-28T02:23:53.159Z,8.80
2023-03-28T02:26:41.730Z,8.50
2023-03-28T02:29:30.933Z,8.60
2023-03-28T02:32:22.046Z,8.40
2023-03-28T02:35:10.367Z,8.20
2023-03-28T02:38:35.044Z,8.30
2023-03-28T02:41:39.805Z,8.40
2023-03-28T02:45:03.528Z,8.50
2023-03-28T02:48:12.672Z,8.40
2023-03-28T02:52:04.280Z,8.40
2023-03-28T02:55:03.859Z,8.50
2023-03-28T02:58:10.469Z,8.70
2023-03-28T03:00:58.103Z,8.30
2023-03-28T03:03:47.165Z,8.60
2023-03-28T03:06:35.315Z,8.60
2023-03-28T03:09:23.202Z,8.60
2023-03-28T03:12:10.734Z,8.90
2023-03-28T03:15:01.256Z,8.60
2023-03-28T03:17:48.763Z,8.60
2023-03-28T03:20:36.365Z,8.80
2023-03-28T03:23:23.807Z,8.80
2023-03-28T03:26:12.024Z,8.80
2023-03-28T03:29:00.756Z,8.60
2023-03-28T03:31:48.442Z,8.80
2023-03-28T03:34:36.833Z,8.30
2023-03-28T03:37:24.306Z,8.60
2023-03-28T03:40:12.978Z,8.50
2023-03-28T03:43:00.691Z,8.60
2023-03-28T03:45:48.229Z,8.60
2023-03-28T03:48:35.831Z,8.60
2023-03-28T03:51:23.354Z,8.50
2023-03-28T03:54:11.801Z,8.30
2023-03-28T03:56:59.434Z,8.40
2023-03-28T03:59:47.510Z,8.40
2023-03-28T04:02:34.999Z,8.10
2023-03-28T04:05:23.772Z,8.30
2023-03-28T04:08:11.304Z,8.80
2023-03-28T04:10:58.831Z,8.60
2023-03-28T04:13:46.317Z,8.60
2023-03-28T04:16:40.400Z,8.60
2023-03-28T04:19:28.650Z,8.50
2023-03-28T04:22:18.737Z,8.00
2023-03-28T04:25:08.338Z,8.40
2023-03-28T04:27:55.898Z,8.30
2023-03-28T04:30:43.662Z,8.50
2023-03-28T04:33:33.862Z,8.30
2023-03-28T04:36:22.578Z,8.50
2023-03-28T04:39:11.390Z,8.30
2023-03-28T04:42:02.325Z,8.40
2023-03-28T04:44:49.926Z,8.20
2023-03-28T04:47:41.039Z,8.40
2023-03-28T04:50:28.583Z,8.20
2023-03-28T04:53:17.484Z,8.20
2023-03-28T04:56:06.217Z,8.10
2023-03-28T04:58:53.659Z,8.50
2023-03-28T05:01:42.289Z,8.40
2023-03-28T05:04:30.986Z,8.50
2023-03-28T05:07:18.457Z,8.60
2023-03-28T05:10:07.672Z,8.80
2023-03-28T05:12:55.144Z,9.10
2023-03-28T05:15:43.666Z,9.10
2023-03-28T05:18:31.121Z,8.50
2023-03-28T05:21:18.551Z,9.00
2023-03-28T05:24:06.992Z,8.80
2023-03-28T05:26:54.502Z,8.90
2023-03-28T05:29:42.027Z,9.10
2023-03-28T05:32:29.549Z,9.00
2023-03-28T05:35:17.854Z,9.20
2023-03-28T05:38:06.415Z,9.00
2023-03-28T05:40:54.508Z,9.40
2023-03-28T05:43:42.084Z,9.10
2023-03-28T05:46:29.530Z,9.30
2023-03-28T05:49:17.170Z,9.50
2023-03-28T05:52:04.987Z,9.40
2023-03-28T05:54:52.888Z,9.20
2023-03-28T05:57:40.840Z,9.10
2023-03-28T06:00:28.443Z,9.30
2023-03-28T06:03:17.591Z,9.50
2023-03-28T06:06:06.195Z,9.30
2023-03-28T06:08:53.636Z,9.50
2023-03-28T06:11:41.680Z,10.00
2023-03-28T06:14:30.529Z,10.00
2023-03-28T06:17:18.122Z,9.70
2023-03-28T06:20:07.575Z,9.80
2023-03-28T06:22:55.206Z,9.70
2023-03-28T06:25:43.531Z,9.80
2023-03-28T06:28:31.155Z,9.50
2023-03-28T06:31:19.851Z,9.30
2023-03-28T06:34:07.609Z,10.00
2023-03-28T06:36:55.175Z,9.60
2023-03-28T06:39:42.650Z,9.60
2023-03-28T06:42:30.316Z,10.10
2023-03-28T06:45:17.871Z,9.90
2023-03-28T06:48:05.546Z,10.30
2023-03-28T06:50:55.341Z,10.20
2023-03-28T06:53:42.847Z,9.90
2023-03-28T06:56:30.413Z,10.40
2023-03-28T06:59:18.105Z,10.20
2023-03-28T07:02:05.670Z,10.20
2023-03-28T07:04:53.221Z,10.20
2023-03-28T07:07:41.474Z,9.50
2023-03-28T07:10:28.877Z,10.30
2023-03-28T07:13:17.590Z,9.80
2023-03-28T07:16:10.888Z,10.40
2023-03-28T07:18:58.460Z,10.10
2023-03-28T07:21:45.959Z,10.50
2023-03-28T07:24:33.414Z,10.10
2023-03-28T07:27:21.954Z,10.50
2023-03-28T07:30:11.962Z,10.70
2023-03-28T07:33:12.998Z,10.00
2023-03-28T07:36:12.262Z,10.50
2023-03-28T07:38:59.772Z,11.10
2023-03-28T07:41:47.734Z,11.00
2023-03-28T07:44:35.875Z,11.10
2023-03-28T07:47:23.535Z,10.80
2023-03-28T07:50:11.291Z,11.40
2023-03-28T07:53:00.157Z,11.00
2023-03-28T07:55:55.065Z,10.70
2023-03-28T07:58:43.363Z,11.40
2023-03-28T08:01:32.190Z,11.40
2023-03-28T08:04:20.742Z,11.30
2023-03-28T08:07:08.228Z,10.70
2023-03-28T08:09:58.429Z,10.70
2023-03-28T08:12:46.822Z,11.00
2023-03-28T08:15:34.312Z,11.40
2023-03-28T08:18:25.377Z,11.10
2023-03-28T08:21:12.820Z,11.10
2023-03-28T08:24:00.520Z,11.00
2023-03-28T08:26:48.727Z,11.10
2023-03-28T08:29:36.422Z,11.10
2023-03-28T08:32:24.198Z,11.30
2023-03-28T08:35:12.330Z,12.00
2023-03-28T08:38:00.376Z,11.90
2023-03-28T08:41:14.924Z,11.60
2023-03-28T08:44:30.702Z,12.00
2023-03-28T08:47:53.206Z,12.30
2023-03-28T08:50:53.526Z,12.20
2023-03-28T08:53:47.820Z,12.40
2023-03-28T08:56:47.494Z,12.20
2023-03-28T08:59:54.527Z,12.40
2023-03-28T09:02:44.002Z,11.70
2023-03-28T09:06:02.629Z,11.70
2023-03-28T09:09:27.390Z,11.90
2023-03-28T09:13:10.394Z,12.00
2023-03-28T09:16:07.118Z,11.50
2023-03-28T09:19:21.194Z,11.50
2023-03-28T09:22:45.564Z,11.40
2023-03-28T09:25:46.372Z,12.10
2023-03-28T09:28:54.937Z,12.30
2023-03-28T09:31:55.546Z,12.00
2023-03-28T09:34:49.842Z,12.30
2023-03-28T09:37:44.431Z,12.90
2023-03-28T09:40:35.036Z,12.20
2023-03-28T09:43:48.997Z,12.60
2023-03-28T09:46:44.672Z,12.70
2023-03-28T09:49:32.262Z,12.90
2023-03-28T09:52:21.839Z,13.60
2023-03-28T09:55:26.306Z,13.60
2023-03-28T09:58:18.444Z,13.80
2023-03-28T10:01:24.779Z,13.30
2023-03-28T10:04:38.165Z,13.50
2023-03-28T10:07:44.261Z,13.70
2023-03-28T10:10:31.979Z,13.10
2023-03-28T10:13:19.441Z,13.40
2023-03-28T10:16:10.630Z,13.70
2023-03-28T10:18:58.523Z,14.20
2023-03-28T10:21:49.866Z,14.00
2023-03-28T10:24:39.805Z,13.80
2023-03-28T10:27:36.851Z,13.50
2023-03-28T10:30:31.085Z,13.60
2023-03-28T10:33:18.702Z,12.60
2023-03-28T10:36:10.629Z,12.50
2023-03-28T10:38:59.325Z,12.40
2023-03-28T10:41:57.570Z,12.70
2023-03-28T10:45:03.204Z,13.90
2023-03-28T10:47:56.699Z,13.90
2023-03-28T10:50:51.406Z,14.10
2023-03-28T10:54:12.971Z,13.70
2023-03-28T10:57:38.622Z,13.90
2023-03-28T11:01:03.988Z,12.70
2023-03-28T11:04:19.524Z,12.80
2023-03-28T11:07:38.978Z,12.90
2023-03-28T11:10:51.208Z,12.70
2023-03-28T11:13:47.797Z,13.40
2023-03-28T11:17:28.061Z,13.20
2023-03-28T11:20:17.771Z,14.00
2023-03-28T11:23:22.545Z,14.00
2023-03-28T11:27:12.618Z,12.90
2023-03-28T11:30:18.495Z,13.40
2023-03-28T11:33:19.208Z,13.60
2023-03-28T11:36:22.311Z,13.50
2023-03-28T11:39:17.198Z,13.70
2023-03-28T11:42:27.810Z,13.40
2023-03-28T11:45:37.446Z,13.80
2023-03-28T11:49:16.441Z,13.30
2023-03-28T11:52:17.086Z,13.50
2023-03-28T11:55:24.160Z,13.70
2023-03-28T11:58:26.158Z,13.50
2023-03-28T12:01:27.252Z,12.60
2023-03-28T12:04:25.635Z,12.20
2023-03-28T12:07:25.448Z,12.20
2023-03-28T12:10:38.332Z,12.90
2023-03-28T12:13:45.546Z,13.30
2023-03-28T12:16:43.223Z,13.60
2023-03-28T12:19:41.548Z,14.20
2023-03-28T12:22:55.236Z,13.90
2023-03-28T12:26:19.525Z,14.50
2023-03-28T12:29:28.328Z,13.80
2023-03-28T12:32:51.985Z,13.30
2023-03-28T12:35:53.832Z,13.00
2023-03-28T12:39:17.779Z,13.60
2023-03-28T12:42:11.706Z,14.00
2023-03-28T12:45:04.262Z,14.30
2023-03-28T12:48:02.634Z,14.40
2023-03-28T12:51:02.672Z,14.60
2023-03-28T12:54:16.708Z,14.10
2023-03-28T12:57:08.521Z,14.30
2023-03-28T13:00:21.220Z,13.90
2023-03-28T13:03:19.742Z,14.60
2023-03-28T13:06:26.009Z,15.00
2023-03-28T13:09:55.342Z,14.60
2023-03-28T13:13:28.338Z,14.50
2023-03-28T13:16:43.873Z,15.60
2023-03-28T13:19:46.430Z,15.20
2023-03-28T13:22:44.370Z,15.00
2023-03-28T13:25:37.820Z,15.00
2023-03-28T13:28:51.688Z,14.50
2023-03-28T13:31:44.029Z,15.00
2023-03-28T13:34:34.383Z,15.10
2023-03-28T13:37:47.158Z,15.20
2023-03-28T13:40:50.908Z,15.40
2023-03-28T13:43:59.254Z,15.80
2023-03-28T13:46:50.343Z,15.50
2023-03-28T13:49:50.406Z,15.40
2023-03-28T13:52:39.509Z,15.50
2023-03-28T13:55:28.104Z,14.70
2023-03-28T13:58:17.301Z,14.60
2023-03-28T14:01:27.018Z,14.90
2023-03-28T14:04:23.095Z,14.80
2023-03-28T14:07:13.623Z,14.80
2023-03-28T14:10:01.307Z,14.40
2023-03-28T14:12:53.240Z,14.60
2023-03-28T14:15:43.699Z,14.70
2023-03-28T14:18:43.225Z,15.30
2023-03-28T14:21:33.129Z,15.40
2023-03-28T14:24:27.093Z,15.30
2023-03-28T14:27:27.421Z,15.50
2023-03-28T14:30:29.996Z,15.70
2023-03-28T14:33:21.328Z,14.90
2023-03-28T14:36:11.053Z,15.10
2023-03-28T14:39:18.533Z,15.60
2023-03-28T14:42:14.652Z,15.40
2023-03-28T14:45:02.160Z,15.70
2023-03-28T14:47:51.766Z,15.60
2023-03-28T14:50:42.250Z,15.50
2023-03-28T14:53:36.940Z,15.70
2023-03-28T14:56:28.483Z,15.60
2023-03-28T14:59:19.857Z,15.60
2023-03-28T15:02:39.508Z,15.60
2023-03-28T15:05:27.903Z,15.20
2023-03-28T15:08:39.952Z,15.50
2023-03-28T15:11:35.689Z,15.50
2023-03-28T15:14:42.758Z,15.30
2023-03-28T15:17:37.214Z,15.40
2023-03-28T15:20:32.116Z,15.20
2023-03-28T15:23:39.536Z,15.90
2023-03-28T15:26:34.535Z,15.70
2023-03-28T15:29:25.470Z,16.00
2023-03-28T15:32:19.057Z,15.90
2023-03-28T15:35:25.489Z,15.90
2023-03-28T15:38:22.871Z,16.00
2023-03-28T15:41:19.309Z,15.40
2023-03-28T15:44:29.977Z,15.60
2023-03-28T15:47:24.221Z,15.00
2023-03-28T15:50:24.910Z,14.90
2023-03-28T15:53:16.797Z,15.30
2023-03-28T15:56:19.411Z,15.70
2023-03-28T15:59:20.429Z,15.30
2023-03-28T16:02:25.036Z,15.20
2023-03-28T16:05:16.165Z,15.60
2023-03-28T16:08:34.275Z,15.00
2023-03-28T16:11:26.834Z,15.70
2023-03-28T16:14:19.151Z,15.80
2023-03-28T16:17:08.355Z,15.60
2023-03-28T16:19:56.416Z,15.50
2023-03-28T16:22:44.966Z,15.90
2023-03-28T16:25:32.925Z,15.50
2023-03-28T16:28:20.641Z,14.80
2023-03-28T16:31:13.536Z,14.60
2023-03-28T16:34:01.163Z,14.70
2023-03-28T16:36:48.964Z,14.50
2023-03-28T16:39:39.606Z,14.40
2023-03-28T16:42:28.163Z,14.70
2023-03-28T16:45:16.109Z,14.30
2023-03-28T16:48:03.740Z,14.40
2023-03-28T16:50:56.111Z,14.20
2023-03-28T16:53:43.741Z,13.80
2023-03-28T16:56:31.525Z,14.00
2023-03-28T16:59:20.305Z,13.80
2023-03-28T17:02:09.850Z,13.80
2023-03-28T17:04:57.675Z,13.40
2023-03-28T17:07:45.589Z,13.50
2023-03-28T17:10:33.168Z,13.30
2023-03-28T17:13:21.286Z,13.40
2023-03-28T17:16:11.473Z,13.30
2023-03-28T17:18:58.925Z,13.00
2023-03-28T17:21:47.137Z,13.10
2023-03-28T17:24:34.706Z,12.90
2023-03-28T17:27:23.403Z,12.90
2023-03-28T17:30:13.050Z,12.70
2023-03-28T17:33:00.800Z,12.60
2023-03-28T17:35:48.605Z,12.50
2023-03-28T17:38:36.182Z,12.50
2023-03-28T17:41:25.189Z,12.30
2023-03-28T17:44:12.797Z,12.40
2023-03-28T17:47:00.986Z,12.30
2023-03-28T17:49:48.505Z,12.10
2023-03-28T17:52:36.001Z,11.90
2023-03-28T17:55:23.550Z,11.70
2023-03-28T17:58:11.103Z,11.80
2023-03-28T18:00:58.934Z,11.80
2023-03-28T18:03:47.377Z,11.70
2023-03-28T18:06:35.408Z,11.50
2023-03-28T18:09:22.953Z,11.50
2023-03-28T18:12:10.656Z,11.40
2023-03-28T18:15:00.411Z,11.50
2023-03-28T18:17:48.761Z,11.40
2023-03-28T18:20:36.367Z,11.40
2023-03-28T18:23:24.847Z,11.30
2023-03-28T18:26:12.517Z,11.30
2023-03-28T18:28:59.956Z,11.30
2023-03-28T18:31:47.538Z,11.20
2023-03-28T18:34:35.124Z,11.20
2023-03-28T18:37:22.628Z,11.10
2023-03-28T18:40:11.211Z,11.00
2023-03-28T18:42:58.844Z,10.90
2023-03-28T18:45:55.913Z,10.80
2023-03-28T18:48:45.549Z,10.70
2023-03-28T18:51:33.502Z,10.50
2023-03-28T18:54:22.450Z,10.40
2023-03-28T18:57:10.897Z,10.20
2023-03-28T18:59:58.672Z,10.10
2023-03-28T19:02:48.027Z,9.90
2023-03-28T19:05:37.261Z,9.80
2023-03-28T19:08:28.185Z,9.70
2023-03-28T19:11:19.852Z,9.60
2023-03-28T19:14:07.422Z,9.50
2023-03-28T19:16:54.983Z,9.50
2023-03-28T19:19:42.580Z,9.40
2023-03-28T19:22:30.267Z,9.30
2023-03-28T19:25:17.910Z,9.40
2023-03-28T19:28:05.469Z,9.40
2023-03-28T19:31:03.274Z,9.30
2023-03-28T19:33:51.573Z,9.20
2023-03-28T19:36:39.073Z,9.10
2023-03-28T19:39:26.592Z,9.00
2023-03-28T19:42:18.153Z,8.80
2023-03-28T19:45:06.594Z,8.70
2023-03-28T19:47:56.004Z,8.70
2023-03-28T19:50:44.735Z,8.60
2023-03-28T19:53:32.828Z,8.60
2023-03-28T19:56:23.096Z,8.60
2023-03-28T19:59:10.752Z,8.50
2023-03-28T20:01:58.333Z,8.50
2023-03-28T20:04:46.045Z,8.50
2023-03-28T20:07:33.973Z,8.40
2023-03-28T20:10:21.485Z,8.40
2023-03-28T20:13:09.561Z,8.30
2023-03-28T20:15:57.308Z,8.30
2023-03-28T20:18:46.510Z,8.30
2023-03-28T20:21:33.973Z,8.30
2023-03-28T20:24:21.448Z,8.30
2023-03-28T20:27:08.938Z,8.40
2023-03-28T20:29:56.507Z,8.30
2023-03-28T20:32:49.600Z,8.30
2023-03-28T20:35:37.427Z,8.30
2023-03-28T20:38:26.248Z,8.30
2023-03-28T20:41:18.319Z,8.30
2023-03-28T20:44:06.286Z,8.20
2023-03-28T20:46:53.815Z,8.20
2023-03-28T20:49:46.534Z,8.20
2023-03-28T20:52:38.740Z,8.20
2023-03-28T20:55:29.402Z,8.10
2023-03-28T20:58:16.961Z,8.10
2023-03-28T21:01:06.052Z,8.00
2023-03-28T21:03:59.255Z,8.00
2023-03-28T21:06:46.763Z,8.00
2023-03-28T21:09:34.228Z,8.00
2023-03-28T21:12:22.387Z,8.00
2023-03-28T21:15:11.859Z,8.00
2023-03-28T21:17:59.562Z,7.90
2023-03-28T21:20:47.776Z,8.00
2023-03-28T21:23:37.900Z,8.00
2023-03-28T21:26:26.467Z,8.00
2023-03-28T21:29:13.932Z,7.90
2023-03-28T21:32:01.527Z,7.90
2023-03-28T21:34:51.299Z,7.90
2023-03-28T21:37:38.709Z,7.90
2023-03-28T21:40:26.244Z,7.90
2023-03-28T21:43:14.417Z,7.80
2023-03-28T21:46:03.300Z,7.80
2023-03-28T21:48:50.866Z,7.80
2023-03-28T21:51:38.477Z,7.80
2023-03-28T21:54:25.982Z,7.80
2023-03-28T21:57:13.480Z,7.80
2023-03-28T22:00:01.672Z,7.70
2023-03-28T22:02:49.310Z,7.80
2023-03-28T22:05:44.561Z,7.70
2023-03-28T22:08:32.704Z,7.80
2023-03-28T22:11:28.323Z,7.90
2023-03-28T22:14:16.126Z,7.80
2023-03-28T22:17:04.385Z,7.80
2023-03-28T22:19:54.048Z,7.70
2023-03-28T22:22:44.966Z,7.60
2023-03-28T22:25:38.536Z,7.70
2023-03-28T22:28:26.263Z,7.60
2023-03-28T22:31:17.098Z,7.50
2023-03-28T22:34:05.028Z,7.50
2023-03-28T22:36:53.524Z,7.50
2023-03-28T22:39:41.130Z,7.50
2023-03-28T22:42:28.930Z,7.40
2023-03-28T22:45:16.815Z,7.50
2023-03-28T22:48:04.646Z,7.40
2023-03-28T22:50:52.146Z,7.40
2023-03-28T22:53:40.526Z,7.30
2023-03-28T22:56:28.100Z,7.40
2023-03-28T22:59:17.244Z,7.50
2023-03-28T23:02:04.825Z,7.50
2023-03-28T23:04:54.319Z,7.50
2023-03-28T23:07:41.952Z,7.60
2023-03-28T23:10:31.173Z,7.60
2023-03-28T23:13:19.215Z,7.70
2023-03-28T23:16:07.609Z,7.80
2023-03-28T23:18:55.215Z,7.90
2023-03-28T23:21:43.038Z,7.90
2023-03-28T23:24:30.714Z,8.00
2023-03-28T23:27:21.395Z,8.00
2023-03-28T23:30:12.300Z,8.00
2023-03-28T23:32:59.852Z,7.90
2023-03-28T23:35:48.623Z,7.90
2023-03-28T23:38:36.361Z,7.80
2023-03-28T23:41:23.892Z,7.80
2023-03-28T23:44:11.672Z,7.80
2023-03-28T23:47:00.278Z,7.90
2023-03-28T23:49:48.103Z,7.90
2023-03-28T23:52:36.889Z,7.80
2023-03-28T23:55:25.936Z,7.90
2023-03-28T23:58:13.439Z,7.90
